Time;durP1;ratioP1;P1;durP2;ratioP2;P2;SDS_P1;SDS_P2;PMS_P1;PMS_P2;Temp;Humidity;BMP_temperature;BMP_pressure;BME280_temperature;BME280_humidity;BME280_pressure;Samples;Min_cycle;Max_cycle;Signal;HPM_P1;HPM_P2
2023/08/29 00:01:47;;;;;;;11.03;6.00;;;12.90;99.90;;;;;;5013311;28;20169;-65
2023/08/29 00:04:14;;;;;;;7.90;5.17;;;12.90;99.90;;;;;;5013104;28;20204;-64
2023/08/29 00:06:39;;;;;;;8.20;5.47;;;12.80;99.90;;;;;;5013341;28;20191;-65
2023/08/29 00:09:05;;;;;;;6.57;4.90;;;12.80;99.90;;;;;;5012588;28;20552;-64
2023/08/29 00:11:30;;;;;;;14.13;5.30;;;12.80;99.90;;;;;;5013001;28;20267;-64
2023/08/29 00:13:56;;;;;;;8.03;5.13;;;12.70;99.90;;;;;;5012980;28;20247;-64
2023/08/29 00:16:22;;;;;;;9.77;5.50;;;12.70;99.90;;;;;;5013325;28;20626;-65
2023/08/29 00:18:47;;;;;;;7.40;5.00;;;12.60;99.90;;;;;;5012564;28;20300;-65
2023/08/29 00:21:13;;;;;;;9.50;5.63;;;12.60;99.90;;;;;;5012966;28;20180;-64
2023/08/29 00:23:39;;;;;;;6.73;5.80;;;12.50;99.90;;;;;;5012837;28;20251;-64
2023/08/29 00:26:04;;;;;;;12.97;6.10;;;12.50;99.90;;;;;;5012805;28;20259;-65
2023/08/29 00:28:30;;;;;;;9.83;5.93;;;12.50;99.90;;;;;;5012193;28;20176;-65
2023/08/29 00:30:55;;;;;;;12.17;6.10;;;12.40;99.90;;;;;;5012810;28;20216;-65
2023/08/29 00:33:21;;;;;;;11.27;5.60;;;12.50;99.90;;;;;;5011003;28;20228;-65
2023/08/29 00:35:47;;;;;;;8.87;5.40;;;12.50;99.90;;;;;;5012758;28;20260;-65
2023/08/29 00:38:13;;;;;;;9.97;6.20;;;12.40;99.90;;;;;;5012041;28;20199;-65
2023/08/29 00:40:39;;;;;;;6.97;5.17;;;12.40;99.90;;;;;;5011268;28;20230;-64
2023/08/29 00:43:05;;;;;;;9.40;6.03;;;12.40;99.90;;;;;;5012575;28;20291;-65
2023/08/29 00:45:33;;;;;;;10.03;5.53;;;12.30;99.90;;;;;;5012591;28;20666;-65
2023/08/29 00:47:59;;;;;;;9.17;5.93;;;12.30;99.90;;;;;;5010641;28;20192;-65
2023/08/29 00:50:25;;;;;;;12.57;6.10;;;12.20;99.90;;;;;;5011308;28;20169;-65
2023/08/29 00:52:54;;;;;;;9.87;6.60;;;12.20;99.90;;;;;;5012144;28;20215;-65
2023/08/29 00:55:20;;;;;;;7.83;5.67;;;12.10;99.90;;;;;;5011409;28;20168;-65
2023/08/29 00:57:45;;;;;;;10.03;5.53;;;12.10;99.90;;;;;;5011633;28;20173;-64
2023/08/29 01:00:11;;;;;;;12.60;6.00;;;12.20;99.90;;;;;;5012252;28;20219;-64
2023/08/29 01:02:37;;;;;;;13.10;6.43;;;12.20;99.90;;;;;;5010869;28;20256;-64
2023/08/29 01:05:03;;;;;;;9.63;6.40;;;12.20;99.90;;;;;;5012262;28;20268;-65
2023/08/29 01:07:29;;;;;;;9.53;5.83;;;12.20;99.90;;;;;;5010893;28;20246;-64
2023/08/29 01:09:55;;;;;;;8.83;5.80;;;12.20;99.90;;;;;;5012308;28;20415;-65
2023/08/29 01:12:20;;;;;;;14.53;6.37;;;12.20;99.90;;;;;;5011001;28;20646;-65
2023/08/29 01:14:46;;;;;;;8.00;5.70;;;12.10;99.90;;;;;;5010583;28;20216;-64
2023/08/29 01:17:13;;;;;;;10.03;6.13;;;12.20;99.90;;;;;;5010142;28;20185;-64
2023/08/29 01:19:40;;;;;;;11.40;5.67;;;12.10;99.90;;;;;;5010713;28;20180;-64
2023/08/29 01:22:36;;;;;;;7.10;5.23;;;12.20;99.90;;;;;;5011630;28;20712;-64
2023/08/29 01:25:25;;;;;;;11.63;5.80;;;12.20;99.90;;;;;;5010860;28;20165;-65
2023/08/29 01:27:51;;;;;;;8.70;5.53;;;12.10;99.90;;;;;;5012186;28;20176;-65
2023/08/29 01:30:17;;;;;;;6.67;5.40;;;12.20;99.90;;;;;;5010517;28;20177;-65
2023/08/29 01:32:42;;;;;;;13.00;5.50;;;12.20;99.90;;;;;;5011655;28;20187;-65
2023/08/29 01:35:10;;;;;;;6.40;5.53;;;12.10;99.90;;;;;;5008929;28;20644;-65
2023/08/29 01:37:35;;;;;;;7.53;5.40;;;12.20;99.90;;;;;;4993560;28;20176;-65
2023/08/29 01:40:01;;;;;;;7.43;5.30;;;12.20;99.90;;;;;;5011530;28;20179;-65
2023/08/29 01:42:26;;;;;;;9.63;5.50;;;12.20;99.90;;;;;;5011448;28;20689;-65
2023/08/29 01:44:52;;;;;;;8.23;5.80;;;12.20;99.90;;;;;;5011663;28;20673;-65
2023/08/29 01:47:17;;;;;;;8.40;5.67;;;12.10;99.90;;;;;;5010785;28;20255;-65
2023/08/29 01:49:43;;;;;;;9.20;5.73;;;12.20;99.90;;;;;;5011282;28;20642;-65
2023/08/29 01:52:08;;;;;;;7.33;5.53;;;12.20;99.90;;;;;;4993782;28;20176;-65
2023/08/29 01:54:34;;;;;;;9.53;5.67;;;12.20;99.90;;;;;;5011072;28;20576;-65
2023/08/29 01:57:00;;;;;;;11.00;5.43;;;12.20;99.90;;;;;;5009439;28;20810;-65
2023/08/29 01:59:25;;;;;;;8.57;5.40;;;12.20;99.90;;;;;;5010064;28;20176;-65
2023/08/29 02:01:51;;;;;;;14.17;6.10;;;12.20;99.90;;;;;;5010036;28;20222;-65
2023/08/29 02:04:16;;;;;;;14.67;6.40;;;12.20;99.90;;;;;;5009849;28;20196;-65
2023/08/29 02:06:42;;;;;;;8.43;5.40;;;12.20;99.90;;;;;;5010711;28;20180;-65
2023/08/29 02:09:07;;;;;;;10.23;5.60;;;12.20;99.90;;;;;;5010900;28;20207;-65
2023/08/29 02:11:33;;;;;;;9.07;5.33;;;12.30;99.90;;;;;;5010976;28;20634;-65
2023/08/29 02:13:59;;;;;;;6.77;4.80;;;12.30;99.90;;;;;;5011018;28;20231;-65
2023/08/29 02:16:24;;;;;;;9.33;5.80;;;12.30;99.90;;;;;;5011189;28;20176;-65
2023/08/29 02:18:51;;;;;;;8.10;5.47;;;12.40;99.90;;;;;;5010299;28;20259;-65
2023/08/29 02:21:17;;;;;;;9.57;5.90;;;12.30;99.90;;;;;;5011028;28;20184;-65
2023/08/29 02:23:42;;;;;;;11.37;5.50;;;12.30;99.90;;;;;;5010820;28;20196;-65
2023/08/29 02:26:08;;;;;;;10.93;6.07;;;12.30;99.90;;;;;;5010894;28;20319;-65
2023/08/29 02:28:37;;;;;;;9.70;5.83;;;12.30;99.90;;;;;;5010230;28;20181;-65
2023/08/29 02:31:04;;;;;;;9.17;5.47;;;12.30;99.90;;;;;;5011213;28;20255;-65
2023/08/29 02:33:30;;;;;;;9.23;5.53;;;12.20;99.90;;;;;;5010636;28;20219;-65
2023/08/29 02:35:56;;;;;;;9.17;5.43;;;12.20;99.90;;;;;;5010867;28;20172;-65
2023/08/29 02:38:21;;;;;;;8.57;5.63;;;12.20;99.90;;;;;;5010243;28;20172;-65
2023/08/29 02:40:47;;;;;;;15.10;6.03;;;12.20;99.90;;;;;;5009168;28;20187;-65
2023/08/29 02:43:12;;;;;;;11.30;5.90;;;12.20;99.90;;;;;;5011018;28;20196;-65
2023/08/29 02:45:38;;;;;;;8.80;5.63;;;12.10;99.90;;;;;;5010780;28;20234;-65
2023/08/29 02:48:04;;;;;;;8.60;6.43;;;12.10;99.90;;;;;;5010086;28;20184;-65
2023/08/29 02:50:30;;;;;;;11.13;6.20;;;12.00;99.90;;;;;;5010978;28;20184;-65
2023/08/29 02:52:56;;;;;;;9.73;6.00;;;12.00;99.90;;;;;;5010532;28;20201;-65
2023/08/29 02:55:21;;;;;;;11.63;6.20;;;12.00;99.90;;;;;;5010558;28;20551;-65
2023/08/29 02:57:47;;;;;;;11.90;6.73;;;12.00;99.90;;;;;;5010207;28;20650;-65
2023/08/29 03:00:14;;;;;;;16.00;6.30;;;12.00;99.90;;;;;;5010659;28;20710;-65
2023/08/29 03:02:39;;;;;;;8.33;6.07;;;11.90;99.90;;;;;;5010523;28;20165;-65
2023/08/29 03:05:05;;;;;;;9.10;5.87;;;11.90;99.90;;;;;;5010839;28;20188;-65
2023/08/29 03:07:31;;;;;;;8.97;5.43;;;11.90;99.90;;;;;;5010005;28;20711;-66
2023/08/29 03:09:56;;;;;;;7.30;5.60;;;11.90;99.90;;;;;;5010533;28;20234;-65
2023/08/29 03:12:22;;;;;;;9.93;5.97;;;11.90;99.90;;;;;;5009147;28;20275;-65
2023/08/29 03:14:52;;;;;;;11.63;6.00;;;11.90;99.90;;;;;;5010626;28;20290;-65
2023/08/29 03:17:17;;;;;;;8.60;6.10;;;11.90;99.90;;;;;;5008691;28;20160;-65
2023/08/29 03:19:43;;;;;;;9.63;5.97;;;11.90;99.90;;;;;;5010178;28;20657;-65
2023/08/29 03:22:08;;;;;;;10.83;5.30;;;11.90;99.90;;;;;;5010461;28;20188;-65
2023/08/29 03:24:34;;;;;;;10.63;5.53;;;11.80;99.90;;;;;;5010263;28;20196;-65
2023/08/29 03:26:59;;;;;;;9.27;5.00;;;11.80;99.90;;;;;;5009706;28;20716;-65
2023/08/29 03:29:25;;;;;;;8.27;4.93;;;11.80;99.90;;;;;;5010376;28;20181;-65
2023/08/29 03:31:50;;;;;;;6.43;4.60;;;11.80;99.90;;;;;;5012530;28;20190;-65
2023/08/29 03:34:16;;;;;;;6.63;4.80;;;11.80;99.90;;;;;;5013749;28;20299;-65
2023/08/29 03:36:41;;;;;;;7.00;4.67;;;11.80;99.90;;;;;;5013709;28;20260;-65
2023/08/29 03:39:07;;;;;;;10.97;4.80;;;11.80;99.90;;;;;;5013608;28;20255;-65
2023/08/29 03:41:32;;;;;;;6.83;5.10;;;11.70;99.90;;;;;;5013605;28;20268;-65
2023/08/29 03:43:58;;;;;;;7.40;5.33;;;11.80;99.90;;;;;;5013696;28;20283;-65
2023/08/29 03:46:23;;;;;;;10.33;4.97;;;11.70;99.90;;;;;;5013614;28;20255;-65
2023/08/29 03:48:49;;;;;;;8.00;4.90;;;11.70;99.90;;;;;;5012820;28;20243;-65
2023/08/29 03:51:14;;;;;;;11.27;6.03;;;11.80;99.90;;;;;;5013435;28;20180;-65
2023/08/29 03:53:40;;;;;;;9.70;6.03;;;11.80;99.90;;;;;;5013256;28;20243;-65
2023/08/29 03:56:06;;;;;;;8.03;5.27;;;11.70;99.90;;;;;;5013408;28;20212;-65
2023/08/29 03:58:32;;;;;;;9.03;5.00;;;11.80;99.90;;;;;;5012761;28;20549;-65
2023/08/29 04:00:58;;;;;;;7.63;4.93;;;11.80;99.90;;;;;;5013371;28;20172;-65
2023/08/29 04:03:23;;;;;;;7.57;5.57;;;11.90;99.90;;;;;;5013438;28;20200;-64
2023/08/29 04:05:49;;;;;;;12.70;5.27;;;11.90;99.90;;;;;;4995591;28;20181;-64
2023/08/29 04:08:14;;;;;;;8.43;5.57;;;11.90;99.90;;;;;;5012630;28;20181;-64
2023/08/29 04:10:40;;;;;;;9.60;5.67;;;11.90;99.90;;;;;;5011829;28;20905;-65
2023/08/29 04:13:06;;;;;;;10.20;5.70;;;11.80;99.90;;;;;;5011742;28;20208;-64
2023/08/29 04:15:35;;;;;;;9.07;6.10;;;11.80;99.90;;;;;;5011900;28;20177;-65
2023/08/29 04:18:01;;;;;;;9.77;5.90;;;11.80;99.90;;;;;;5011162;28;20642;-65
2023/08/29 04:20:27;;;;;;;12.97;6.20;;;11.80;99.90;;;;;;5013222;28;20177;-65
2023/08/29 04:22:53;;;;;;;16.57;5.90;;;11.80;99.90;;;;;;5012728;28;20266;-64
2023/08/29 04:25:19;;;;;;;13.53;6.17;;;11.80;99.90;;;;;;5013276;28;20259;-64
2023/08/29 04:27:46;;;;;;;11.77;6.23;;;11.80;99.90;;;;;;5010904;28;20642;-64
2023/08/29 04:30:12;;;;;;;13.03;5.83;;;11.90;99.90;;;;;;5012846;28;20176;-65
2023/08/29 04:32:37;;;;;;;9.57;5.33;;;11.90;99.90;;;;;;5012659;28;20537;-64
2023/08/29 04:35:06;;;;;;;7.07;5.33;;;11.90;99.90;;;;;;5012742;28;20219;-64
2023/08/29 04:37:33;;;;;;;8.30;5.17;;;11.90;99.90;;;;;;5011690;28;20541;-64
2023/08/29 04:39:59;;;;;;;11.20;5.47;;;12.00;99.90;;;;;;5012999;28;20183;-65
2023/08/29 04:42:25;;;;;;;9.30;5.57;;;12.00;99.90;;;;;;5011506;28;20177;-65
2023/08/29 04:44:53;;;;;;;11.97;5.67;;;12.00;99.90;;;;;;5011252;28;20685;-65
2023/08/29 04:47:19;;;;;;;7.97;5.70;;;12.00;99.90;;;;;;5012032;28;20199;-65
2023/08/29 04:49:44;;;;;;;10.03;6.10;;;12.00;99.90;;;;;;5012560;28;20554;-65
2023/08/29 04:52:10;;;;;;;7.97;5.87;;;12.00;99.90;;;;;;5012443;28;20183;-65
2023/08/29 04:54:35;;;;;;;8.07;5.63;;;12.00;99.90;;;;;;5012158;28;20212;-65
2023/08/29 04:57:03;;;;;;;10.87;6.00;;;12.00;99.90;;;;;;5010562;28;20180;-65
2023/08/29 04:59:29;;;;;;;14.50;5.80;;;12.10;99.90;;;;;;5009927;28;20614;-65
2023/08/29 05:01:55;;;;;;;11.80;6.30;;;12.10;99.90;;;;;;5011161;28;20206;-65
2023/08/29 05:04:20;;;;;;;8.63;6.20;;;12.10;99.90;;;;;;5011383;28;20296;-64
2023/08/29 05:06:46;;;;;;;11.07;5.97;;;12.10;99.90;;;;;;5009791;28;20550;-64
2023/08/29 05:09:11;;;;;;;12.07;5.73;;;12.20;99.90;;;;;;5011037;28;20653;-65
2023/08/29 05:11:37;;;;;;;11.23;6.00;;;12.20;99.90;;;;;;5011191;28;20181;-65
2023/08/29 05:14:02;;;;;;;11.30;6.47;;;12.20;99.90;;;;;;5010990;28;20216;-65
2023/08/29 05:16:28;;;;;;;9.57;5.90;;;12.20;99.90;;;;;;5011062;28;20172;-65
2023/08/29 05:18:54;;;;;;;10.40;5.90;;;12.20;99.90;;;;;;5010347;28;20654;-64
2023/08/29 05:21:19;;;;;;;11.93;5.63;;;12.30;99.90;;;;;;5010136;28;20638;-65
2023/08/29 05:23:45;;;;;;;8.07;5.33;;;12.30;99.90;;;;;;5010969;28;20203;-65
2023/08/29 05:26:10;;;;;;;10.07;5.97;;;12.40;99.90;;;;;;5010727;28;20180;-65
2023/08/29 05:28:36;;;;;;;9.53;5.73;;;12.40;99.90;;;;;;5009973;28;20184;-65
2023/08/29 05:31:01;;;;;;;9.30;4.60;;;12.40;99.90;;;;;;5010918;28;20541;-65
2023/08/29 05:33:27;;;;;;;9.27;5.70;;;12.40;99.90;;;;;;5010630;28;20693;-65
2023/08/29 05:35:52;;;;;;;9.17;5.70;;;12.40;99.90;;;;;;5010742;28;20184;-65
2023/08/29 05:38:18;;;;;;;11.00;5.53;;;12.40;99.90;;;;;;5010330;28;20185;-65
2023/08/29 05:40:43;;;;;;;9.50;5.70;;;12.40;99.90;;;;;;5010371;28;20177;-65
2023/08/29 05:43:09;;;;;;;7.07;5.27;;;12.50;99.90;;;;;;5010647;28;20196;-65
2023/08/29 05:45:35;;;;;;;12.67;5.97;;;12.60;99.90;;;;;;5010599;28;20191;-65
2023/08/29 05:48:00;;;;;;;9.20;5.70;;;12.60;99.90;;;;;;5010100;28;20172;-65
2023/08/29 05:50:26;;;;;;;8.53;5.87;;;12.60;99.90;;;;;;5010627;28;20222;-65
2023/08/29 05:52:52;;;;;;;8.17;5.87;;;12.70;99.90;;;;;;5010429;28;20276;-64
2023/08/29 05:55:18;;;;;;;7.73;5.40;;;12.80;99.90;;;;;;5010159;28;20636;-65
2023/08/29 05:57:43;;;;;;;10.30;5.93;;;12.80;99.90;;;;;;5009716;28;20176;-65
2023/08/29 06:00:13;;;;;;;8.37;5.77;;;12.80;99.90;;;;;;5010387;28;20195;-64
2023/08/29 06:02:39;;;;;;;10.57;5.87;;;12.90;99.90;;;;;;5010216;28;20963;-65
2023/08/29 06:05:06;;;;;;;8.60;6.10;;;12.90;99.90;;;;;;5009046;28;20251;-65
2023/08/29 06:07:32;;;;;;;10.37;6.13;;;12.90;99.90;;;;;;5008648;28;20635;-64
2023/08/29 06:09:58;;;;;;;7.70;5.33;;;13.00;99.90;;;;;;5010153;28;20184;-64
2023/08/29 06:12:23;;;;;;;12.43;6.77;;;13.00;99.90;;;;;;5010135;28;20181;-65
2023/08/29 06:14:49;;;;;;;11.60;6.30;;;13.10;99.90;;;;;;5010551;28;20307;-64
2023/08/29 06:17:14;;;;;;;9.37;5.50;;;13.10;99.90;;;;;;5009756;28;20548;-65
2023/08/29 06:19:40;;;;;;;14.50;6.10;;;13.20;99.90;;;;;;5010196;28;20179;-65
2023/08/29 06:22:06;;;;;;;13.20;5.90;;;13.30;99.90;;;;;;5010120;28;20194;-65
2023/08/29 06:24:32;;;;;;;9.83;6.37;;;13.30;99.90;;;;;;5009981;28;20197;-64
2023/08/29 06:26:57;;;;;;;13.43;6.73;;;13.40;99.90;;;;;;5009694;28;20183;-65
2023/08/29 06:29:23;;;;;;;9.37;6.40;;;13.50;99.90;;;;;;5010030;28;20712;-65
2023/08/29 06:31:49;;;;;;;11.03;6.47;;;13.50;99.90;;;;;;5010214;28;20180;-65
2023/08/29 06:34:14;;;;;;;14.60;6.40;;;13.60;99.90;;;;;;5010071;28;20298;-65
2023/08/29 06:36:41;;;;;;;10.13;6.17;;;13.70;99.90;;;;;;5009908;28;20272;-65
2023/08/29 06:39:08;;;;;;;8.67;6.40;;;13.80;99.90;;;;;;5010062;28;20184;-65
2023/08/29 06:41:33;;;;;;;9.83;6.17;;;13.90;99.90;;;;;;5009889;28;20168;-65
2023/08/29 06:43:59;;;;;;;12.23;6.77;;;13.90;99.90;;;;;;5009974;28;20677;-64
2023/08/29 06:46:24;;;;;;;11.77;6.43;;;14.00;99.90;;;;;;5008504;28;20642;-65
2023/08/29 06:48:50;;;;;;;21.97;6.47;;;14.00;99.90;;;;;;5009245;28;20181;-65
2023/08/29 06:51:16;;;;;;;7.97;5.57;;;14.00;99.90;;;;;;5010132;28;20279;-65
2023/08/29 06:53:41;;;;;;;9.93;6.90;;;14.00;99.90;;;;;;5009675;28;20235;-65
2023/08/29 06:56:07;;;;;;;10.20;6.47;;;14.10;99.90;;;;;;5009725;28;20187;-65
2023/08/29 06:58:32;;;;;;;9.83;5.97;;;14.00;99.90;;;;;;5009365;28;20702;-65
2023/08/29 07:00:58;;;;;;;13.50;6.83;;;14.00;99.90;;;;;;5010040;28;20200;-65
2023/08/29 07:03:23;;;;;;;9.87;6.57;;;14.10;99.90;;;;;;5009855;28;20228;-65
2023/08/29 07:05:49;;;;;;;17.53;7.53;;;14.10;99.90;;;;;;5010661;28;20725;-65
2023/08/29 07:08:15;;;;;;;10.93;6.60;;;14.20;99.90;;;;;;5011696;28;20557;-65
2023/08/29 07:10:40;;;;;;;10.67;6.93;;;14.20;99.90;;;;;;5013434;28;20205;-65
2023/08/29 07:13:06;;;;;;;11.03;6.90;;;14.20;99.90;;;;;;5004653;28;20251;-65
2023/08/29 07:15:31;;;;;;;11.27;7.60;;;14.30;99.90;;;;;;4993920;28;20193;-65
2023/08/29 07:17:57;;;;;;;15.37;7.67;;;14.30;99.90;;;;;;4993292;28;20188;-65
2023/08/29 07:20:22;;;;;;;15.27;7.20;;;14.30;99.90;;;;;;4993826;28;20184;-65
2023/08/29 07:22:48;;;;;;;12.37;7.57;;;14.30;99.90;;;;;;4993648;28;20177;-65
2023/08/29 07:25:15;;;;;;;11.10;7.50;;;14.30;99.90;;;;;;4993758;28;20177;-65
2023/08/29 07:27:40;;;;;;;13.90;7.33;;;14.30;99.90;;;;;;4992917;28;20541;-65
2023/08/29 07:30:06;;;;;;;14.20;6.90;;;14.30;99.90;;;;;;4993613;28;20184;-65
2023/08/29 07:32:32;;;;;;;14.10;6.73;;;14.40;99.90;;;;;;4993837;28;20173;-65
2023/08/29 07:34:58;;;;;;;13.97;7.20;;;14.50;99.90;;;;;;4993237;28;20212;-65
2023/08/29 07:37:24;;;;;;;13.07;7.53;;;14.50;99.90;;;;;;4992902;28;20606;-65
2023/08/29 07:39:49;;;;;;;12.33;6.93;;;14.50;99.90;;;;;;4993392;28;20177;-65
2023/08/29 07:42:16;;;;;;;12.63;7.07;;;14.60;99.90;;;;;;4993293;28;20173;-65
2023/08/29 07:44:42;;;;;;;11.90;7.50;;;14.70;99.90;;;;;;4993062;28;20193;-65
2023/08/29 07:47:08;;;;;;;10.97;6.70;;;14.70;99.90;;;;;;4992710;28;20169;-65
2023/08/29 07:49:34;;;;;;;11.63;7.17;;;14.80;99.90;;;;;;4993430;28;20181;-65
2023/08/29 07:51:59;;;;;;;11.20;7.23;;;14.90;99.90;;;;;;4993090;28;20665;-65
2023/08/29 07:54:25;;;;;;;11.60;7.10;;;15.00;99.90;;;;;;4991852;28;20208;-65
2023/08/29 07:56:50;;;;;;;10.13;7.40;;;15.10;99.90;;;;;;4992829;28;20218;-65
2023/08/29 07:59:16;;;;;;;11.07;7.37;;;15.20;99.90;;;;;;4992959;28;20173;-65
2023/08/29 08:01:44;;;;;;;13.47;7.53;;;15.40;99.90;;;;;;4993053;28;20205;-65
2023/08/29 08:04:10;;;;;;;11.80;7.10;;;15.40;99.90;;;;;;4991856;28;20209;-65
2023/08/29 08:06:36;;;;;;;12.30;7.90;;;15.60;99.90;;;;;;4992819;28;20673;-65
2023/08/29 08:09:03;;;;;;;10.70;7.17;;;15.80;99.90;;;;;;4992519;28;20244;-65
2023/08/29 08:11:28;;;;;;;11.77;7.13;;;16.00;99.90;;;;;;4992771;28;20642;-65
2023/08/29 08:13:54;;;;;;;11.50;7.10;;;16.20;99.90;;;;;;4992298;28;20342;-65
2023/08/29 08:16:19;;;;;;;10.97;6.10;;;16.40;99.90;;;;;;4992731;28;20264;-65
2023/08/29 08:18:45;;;;;;;10.57;6.90;;;16.70;99.90;;;;;;4992197;28;20178;-65
2023/08/29 08:21:10;;;;;;;10.50;6.13;;;17.10;99.90;;;;;;4992659;28;20177;-65
2023/08/29 08:23:36;;;;;;;10.07;6.20;;;17.40;99.90;;;;;;4992456;28;20205;-65
2023/08/29 08:26:01;;;;;;;10.80;5.70;;;17.80;99.90;;;;;;4992559;28;20192;-65
2023/08/29 08:28:27;;;;;;;7.23;4.80;;;18.30;99.90;;;;;;4992223;28;20186;-65
2023/08/29 08:30:53;;;;;;;8.03;4.93;;;18.80;99.90;;;;;;4992651;28;20226;-65
2023/08/29 08:33:18;;;;;;;7.90;4.90;;;19.00;99.90;;;;;;4992340;28;20269;-65
2023/08/29 08:35:44;;;;;;;10.37;5.10;;;19.40;99.90;;;;;;4992358;28;20232;-65
2023/08/29 08:38:09;;;;;;;7.40;4.93;;;19.90;99.90;;;;;;4991521;28;20200;-65
2023/08/29 08:40:36;;;;;;;10.43;4.33;;;20.60;99.90;;;;;;4992085;28;20189;-65
2023/08/29 08:43:05;;;;;;;8.03;4.30;;;21.10;99.90;;;;;;4990899;28;20275;-65
2023/08/29 08:45:31;;;;;;;9.70;3.40;;;22.00;99.90;;;;;;4991152;28;20568;-66
2023/08/29 08:47:57;;;;;;;8.23;3.70;;;22.50;99.90;;;;;;4990486;28;20181;-65
2023/08/29 08:50:23;;;;;;;5.17;3.00;;;23.00;99.90;;;;;;4990892;28;20171;-65
2023/08/29 08:52:49;;;;;;;7.03;3.17;;;23.00;99.90;;;;;;4974587;28;20554;-66
2023/08/29 08:55:15;;;;;;;6.00;3.20;;;22.80;99.90;;;;;;4990517;28;20202;-65
2023/08/29 08:57:41;;;;;;;5.83;2.70;;;22.70;99.90;;;;;;4990269;28;20611;-65
2023/08/29 09:00:07;;;;;;;6.10;2.60;;;22.20;99.90;;;;;;4991865;28;20178;-65
2023/08/29 09:02:33;;;;;;;5.03;2.33;;;21.90;99.90;;;;;;4990463;28;20249;-66
2023/08/29 09:04:59;;;;;;;4.20;2.30;;;21.40;99.90;;;;;;4991810;28;20213;-65
2023/08/29 09:07:24;;;;;;;5.63;2.53;;;21.10;99.90;;;;;;4991170;28;20196;-65
2023/08/29 09:10:10;;;;;;;6.87;2.30;;;20.90;99.90;;;;;;4991627;28;20268;-65
2023/08/29 09:12:43;;;;;;;4.00;2.40;;;20.60;99.90;;;;;;4989961;28;20711;-65
2023/08/29 09:15:09;;;;;;;3.93;2.60;;;20.30;99.90;;;;;;4990357;28;20232;-65
2023/08/29 09:17:35;;;;;;;5.57;2.47;;;19.90;99.90;;;;;;4989225;28;20227;-65
2023/08/29 09:20:05;;;;;;;4.83;2.37;;;19.70;99.90;;;;;;4990256;28;20220;-65
2023/08/29 09:22:31;;;;;;;4.13;2.20;;;19.50;99.90;;;;;;4991341;28;20173;-65
2023/08/29 09:25:02;;;;;;;4.07;2.77;;;19.50;99.90;;;;;;4990327;28;20205;-65
2023/08/29 09:27:27;;;;;;;6.13;2.73;;;19.20;99.90;;;;;;4990462;28;20503;-65
2023/08/29 09:29:53;;;;;;;5.87;2.53;;;19.00;99.90;;;;;;4990187;28;20188;-65
2023/08/29 09:32:18;;;;;;;5.17;2.90;;;19.00;99.90;;;;;;4990510;28;20181;-65
2023/08/29 09:34:44;;;;;;;6.27;2.67;;;19.00;99.90;;;;;;4989242;28;20215;-65
2023/08/29 09:37:13;;;;;;;7.00;2.40;;;19.20;99.90;;;;;;4990433;28;20573;-65
2023/08/29 09:39:38;;;;;;;3.83;1.97;;;19.20;99.90;;;;;;4990067;28;20170;-65
2023/08/29 09:42:05;;;;;;;4.73;2.30;;;19.40;99.90;;;;;;4990990;28;20519;-65
2023/08/29 09:44:35;;;;;;;7.37;2.40;;;19.50;99.90;;;;;;4990861;28;20292;-68
2023/08/29 09:47:01;;;;;;;4.13;2.60;;;19.70;99.90;;;;;;4989489;28;20736;-67
2023/08/29 09:49:43;;;;;;;4.10;2.13;;;19.80;99.90;;;;;;4990924;28;20297;-67
2023/08/29 09:52:09;;;;;;;3.50;2.07;;;19.70;99.90;;;;;;4991034;28;20177;-65
2023/08/29 09:54:35;;;;;;;3.00;1.80;;;19.60;99.90;;;;;;4989687;28;20572;-65
2023/08/29 09:57:01;;;;;;;4.87;2.20;;;19.90;99.90;;;;;;4988993;28;20169;-65
2023/08/29 09:59:27;;;;;;;2.87;1.70;;;20.10;99.90;;;;;;4988935;28;20177;-66
2023/08/29 10:01:53;;;;;;;4.73;2.00;;;20.20;99.90;;;;;;4989790;28;20165;-65
2023/08/29 10:04:20;;;;;;;5.90;1.97;;;20.40;99.90;;;;;;4989354;28;20351;-65
2023/08/29 10:06:47;;;;;;;9.47;1.80;;;20.70;99.90;;;;;;4989315;28;20192;-65
2023/08/29 10:09:13;;;;;;;3.33;1.60;;;20.90;99.90;;;;;;4989391;28;20189;-66
2023/08/29 10:11:39;;;;;;;4.43;1.70;;;21.10;99.90;;;;;;4989214;28;20248;-66
2023/08/29 10:14:04;;;;;;;4.67;1.60;;;21.30;99.90;;;;;;4989234;28;20216;-66
2023/08/29 10:16:30;;;;;;;4.13;1.53;;;21.30;99.90;;;;;;4989222;28;20173;-65
2023/08/29 10:18:56;;;;;;;2.67;1.60;;;21.60;99.90;;;;;;4988810;28;20177;-66
2023/08/29 10:21:21;;;;;;;4.90;1.60;;;21.90;99.90;;;;;;4990577;28;20173;-66
2023/08/29 10:23:51;;;;;;;3.70;1.53;;;21.90;99.90;;;;;;4989073;28;20260;-66
2023/08/29 10:26:17;;;;;;;5.53;2.00;;;22.00;99.90;;;;;;4989561;28;20323;-65
2023/08/29 10:28:43;;;;;;;5.60;3.97;;;22.00;99.90;;;;;;4988959;28;20635;-65
2023/08/29 10:31:09;;;;;;;15.47;7.93;;;21.90;99.90;;;;;;4989176;28;20203;-64
2023/08/29 10:33:36;;;;;;;5.20;2.20;;;22.00;99.90;;;;;;4989043;28;20694;-66
2023/08/29 10:36:03;;;;;;;4.30;1.67;;;22.30;99.90;;;;;;4984582;28;20260;-66
2023/08/29 10:38:30;;;;;;;4.10;1.97;;;22.40;99.90;;;;;;4984776;28;20230;-65
2023/08/29 10:41:06;;;;;;;3.17;1.50;;;22.30;99.90;;;;;;4992419;28;20196;-66
2023/08/29 10:43:32;;;;;;;7.07;1.60;;;22.30;99.90;;;;;;5002650;28;20263;-66
2023/08/29 10:45:59;;;;;;;2.97;1.77;;;22.30;99.90;;;;;;5000993;28;20188;-66
2023/08/29 10:48:41;;;;;;;5.17;1.97;;;22.40;99.90;;;;;;4994613;28;20184;-66
2023/08/29 10:51:07;;;;;;;3.23;1.33;;;22.40;99.90;;;;;;4997184;28;20687;-66
2023/08/29 10:53:38;;;;;;;3.87;1.43;;;22.60;99.90;;;;;;4995450;28;21693;-65
2023/08/29 10:56:07;;;;;;;3.37;1.40;;;23.00;99.90;;;;;;4999383;28;20559;-66
2023/08/29 10:58:43;;;;;;;3.23;1.73;;;23.30;99.90;;;;;;4997680;28;20185;-65
2023/08/29 11:01:36;;;;;;;3.30;1.57;;;23.50;99.90;;;;;;5000869;28;20194;-66
2023/08/29 11:04:11;;;;;;;4.10;1.30;;;23.50;99.90;;;;;;4996201;28;20212;-66
2023/08/29 11:06:52;;;;;;;2.40;1.43;;;23.30;99.90;;;;;;4997091;28;20302;-66
2023/08/29 11:09:21;;;;;;;3.60;1.30;;;23.00;99.90;;;;;;4993784;28;20554;-65
2023/08/29 11:12:09;;;;;;;2.30;1.20;;;22.80;99.90;;;;;;4992414;28;20186;-66
2023/08/29 11:14:53;;;;;;;2.47;1.33;;;22.20;99.90;;;;;;4993866;28;20214;-65
2023/08/29 11:17:25;;;;;;;5.10;2.20;;;21.90;99.90;;;;;;4993467;28;20229;-66
2023/08/29 11:19:58;;;;;;;3.07;1.70;;;21.50;99.90;;;;;;4993783;28;20587;-65
2023/08/29 11:22:29;;;;;;;3.33;1.60;;;21.20;99.90;;;;;;4992371;28;20173;-66
2023/08/29 11:24:55;;;;;;;4.03;1.40;;;20.90;99.90;;;;;;4993662;28;20663;-64
2023/08/29 11:27:24;;;;;;;7.37;1.50;;;20.60;99.90;;;;;;4992984;28;20512;-65
2023/08/29 11:29:50;;;;;;;3.57;1.50;;;20.20;99.90;;;;;;4993617;28;20173;-63
2023/08/29 11:32:17;;;;;;;7.33;1.70;;;19.90;99.90;;;;;;4993855;28;20192;-64
2023/08/29 11:34:42;;;;;;;7.43;1.60;;;19.50;99.90;;;;;;4993526;28;20268;-64
2023/08/29 11:37:09;;;;;;;3.57;1.43;;;19.20;99.90;;;;;;4992910;28;20635;-64
2023/08/29 11:39:36;;;;;;;7.57;2.60;;;18.90;99.90;;;;;;4993367;28;20179;-63
2023/08/29 11:42:03;;;;;;;4.00;2.37;;;18.70;99.90;;;;;;4993262;28;20674;-63
2023/08/29 11:44:29;;;;;;;10.23;2.50;;;18.50;99.90;;;;;;4991851;28;20279;-62
2023/08/29 11:46:57;;;;;;;4.53;2.43;;;18.30;99.90;;;;;;4991914;28;20228;-62
2023/08/29 11:49:22;;;;;;;8.70;3.13;;;18.20;99.90;;;;;;4993527;28;20193;-62
2023/08/29 11:51:48;;;;;;;5.60;2.80;;;18.10;99.90;;;;;;4992685;28;20181;-62
2023/08/29 11:55:01;;;;;;;7.47;3.80;;;18.00;99.90;;;;;;4975612;28;20212;-62
2023/08/29 11:57:30;;;;;;;7.73;3.50;;;17.90;99.90;;;;;;4991607;28;20271;-63
2023/08/29 11:59:56;;;;;;;8.37;3.77;;;17.90;99.90;;;;;;4991792;28;20162;-64
2023/08/29 12:02:22;;;;;;;7.60;3.30;;;17.80;99.90;;;;;;5002892;28;20624;-64
2023/08/29 12:04:52;;;;;;;6.53;3.07;;;17.70;99.90;;;;;;5010970;28;20307;-64
2023/08/29 12:07:18;;;;;;;5.17;2.73;;;17.70;99.90;;;;;;5012048;28;20200;-64
2023/08/29 12:09:44;;;;;;;6.90;3.40;;;17.60;99.90;;;;;;5012363;28;20211;-65
2023/08/29 12:12:29;;;;;;;8.23;3.13;;;17.50;99.90;;;;;;5011143;28;20684;-64
2023/08/29 12:14:55;;;;;;;14.97;4.50;;;17.40;99.90;;;;;;5012635;28;20208;-64
2023/08/29 12:17:21;;;;;;;8.00;3.93;;;17.40;99.90;;;;;;5011776;28;20541;-63
2023/08/29 12:19:47;;;;;;;5.50;3.20;;;17.30;99.90;;;;;;5012424;28;20181;-64
2023/08/29 12:22:12;;;;;;;4.50;2.83;;;17.20;99.90;;;;;;5012367;28;20173;-65
2023/08/29 12:24:39;;;;;;;7.33;2.80;;;17.20;99.90;;;;;;5012139;28;20200;-65
2023/08/29 12:27:06;;;;;;;6.27;2.10;;;17.10;99.90;;;;;;5010486;28;20584;-65
2023/08/29 12:29:31;;;;;;;3.23;2.10;;;17.10;99.90;;;;;;5012094;28;20272;-65
2023/08/29 12:31:57;;;;;;;5.00;2.07;;;17.00;99.90;;;;;;5012063;28;20200;-65
2023/08/29 12:34:23;;;;;;;6.43;2.70;;;17.00;99.90;;;;;;5011786;28;20200;-66
2023/08/29 12:36:48;;;;;;;4.60;2.50;;;17.10;99.90;;;;;;5011914;28;20260;-64
2023/08/29 12:39:14;;;;;;;5.00;2.40;;;17.10;99.90;;;;;;5011958;28;20590;-65
2023/08/29 12:41:39;;;;;;;4.53;2.43;;;17.10;99.90;;;;;;5010454;28;20180;-66